Time;durP1;ratioP1;P1;durP2;ratioP2;P2;SDS_P1;SDS_P2;PMS_P1;PMS_P2;Temp;Humidity;BMP_temperature;BMP_pressure;BME280_temperature;BME280_humidity;BME280_pressure;Samples;Min_cycle;Max_cycle;Signal;HPM_P1;HPM_P2
2024/02/25 00:02:24;;;;;;;1.70;0.60;;;;;;;;;;4984734;28;83287;-53
2024/02/25 00:04:49;;;;;;;1.27;0.30;;;;;;;;;;4987759;28;83662;-53
2024/02/25 00:07:14;;;;;;;1.37;0.37;;;;;;;;;;4984661;28;82142;-53
2024/02/25 00:09:40;;;;;;;0.70;0.47;;;;;;;;;;5002838;28;83127;-53
2024/02/25 00:12:05;;;;;;;1.00;0.53;;;;;;;;;;4986309;28;82207;-52
2024/02/25 00:14:30;;;;;;;1.02;0.40;;;;;;;;;;4991923;28;81900;-53
2024/02/25 00:16:56;;;;;;;2.10;0.38;;;;;;;;;;4984421;28;82496;-53
2024/02/25 00:19:21;;;;;;;0.40;0.30;;;;;;;;;;4990953;28;82383;-56
2024/02/25 00:21:46;;;;;;;1.53;0.40;;;;;;;;;;4992667;28;82355;-53
2024/02/25 00:24:11;;;;;;;0.33;0.17;;;;;;;;;;4987546;28;84745;-53
2024/02/25 00:26:36;;;;;;;0.60;0.40;;;;;;;;;;4986411;28;81328;-53
2024/02/25 00:29:02;;;;;;;1.50;0.47;;;;;;;;;;4982770;28;81896;-53
2024/02/25 00:31:27;;;;;;;0.30;0.30;;;;;;;;;;4985549;28;82765;-52
2024/02/25 00:33:52;;;;;;;0.70;0.30;;;;;;;;;;4984226;28;83249;-53
2024/02/25 00:36:17;;;;;;;1.53;0.50;;;;;;;;;;4988325;28;83502;-53
2024/02/25 00:38:42;;;;;;;0.68;0.50;;;;;;;;;;4979574;28;82846;-53
2024/02/25 00:41:08;;;;;;;1.60;0.57;;;;;;;;;;4991509;28;82810;-51
2024/02/25 00:43:33;;;;;;;0.50;0.40;;;;;;;;;;4986824;28;82155;-52
2024/02/25 00:45:58;;;;;;;0.40;0.40;;;;;;;;;;4988847;28;83275;-53
2024/02/25 00:48:24;;;;;;;0.67;0.50;;;;;;;;;;4987705;28;82041;-52
2024/02/25 00:50:49;;;;;;;0.90;0.30;;;;;;;;;;4988364;28;81834;-53
2024/02/25 00:53:16;;;;;;;0.65;0.25;;;;;;;;;;4983587;28;81894;-53
2024/02/25 00:55:41;;;;;;;0.30;0.20;;;;;;;;;;4987938;28;83106;-53
2024/02/25 00:58:06;;;;;;;0.97;0.40;;;;;;;;;;4985734;28;82887;-52
2024/02/25 01:00:31;;;;;;;0.10;0.10;;;;;;;;;;4985004;28;82601;-51
2024/02/25 01:02:57;;;;;;;0.70;0.40;;;;;;;;;;4987735;28;82263;-53
2024/02/25 01:05:23;;;;;;;0.83;0.30;;;;;;;;;;4985994;28;81917;-53
2024/02/25 01:07:49;;;;;;;0.33;0.20;;;;;;;;;;4985266;28;82961;-53
2024/02/25 01:10:14;;;;;;;0.60;0.37;;;;;;;;;;4981919;28;82842;-52
2024/02/25 01:12:39;;;;;;;2.97;0.33;;;;;;;;;;4985951;28;83264;-52
2024/02/25 01:15:05;;;;;;;0.97;0.50;;;;;;;;;;4987473;28;81356;-53
2024/02/25 01:17:30;;;;;;;1.90;0.27;;;;;;;;;;4980572;28;82320;-53
2024/02/25 01:19:55;;;;;;;0.73;0.37;;;;;;;;;;4982948;28;82042;-53
2024/02/25 01:22:20;;;;;;;0.20;0.20;;;;;;;;;;4979772;28;82877;-52
2024/02/25 01:24:46;;;;;;;1.57;0.40;;;;;;;;;;4990261;28;82457;-53
2024/02/25 01:27:11;;;;;;;1.53;0.23;;;;;;;;;;4988995;28;82345;-54
2024/02/25 01:29:38;;;;;;;0.30;0.30;;;;;;;;;;4982201;28;83669;-51
2024/02/25 01:32:04;;;;;;;2.30;0.30;;;;;;;;;;4986659;28;82383;-54
2024/02/25 01:34:29;;;;;;;0.80;0.20;;;;;;;;;;4982235;28;82015;-53
2024/02/25 01:36:54;;;;;;;0.20;0.20;;;;;;;;;;4983948;28;82985;-51
2024/02/25 01:39:22;;;;;;;0.60;0.43;;;;;;;;;;4984893;28;81292;-52
2024/02/25 01:41:48;;;;;;;2.20;0.47;;;;;;;;;;4984522;28;83427;-52
2024/02/25 01:44:13;;;;;;;1.10;0.57;;;;;;;;;;4982549;28;82002;-53
2024/02/25 01:46:40;;;;;;;0.90;0.40;;;;;;;;;;4987050;28;83308;-51
2024/02/25 01:49:05;;;;;;;0.70;0.33;;;;;;;;;;4988967;28;83045;-52
2024/02/25 01:51:30;;;;;;;2.33;0.40;;;;;;;;;;4981080;28;82179;-51
2024/02/25 01:53:56;;;;;;;0.90;0.40;;;;;;;;;;4985753;28;82009;-53
2024/02/25 01:56:21;;;;;;;0.20;0.20;;;;;;;;;;4985301;28;83192;-54
2024/02/25 01:58:47;;;;;;;0.20;0.20;;;;;;;;;;4987945;28;82090;-53
2024/02/25 02:01:15;;;;;;;0.40;0.20;;;;;;;;;;4987708;28;82565;-54
2024/02/25 02:03:41;;;;;;;1.20;0.40;;;;;;;;;;4991791;28;82815;-54
2024/02/25 02:06:07;;;;;;;0.75;0.57;;;;;;;;;;4982433;28;81883;-52
2024/02/25 02:08:32;;;;;;;0.53;0.30;;;;;;;;;;4982847;28;82401;-50
2024/02/25 02:10:58;;;;;;;0.70;0.30;;;;;;;;;;4984124;28;83140;-53
2024/02/25 02:13:23;;;;;;;1.07;0.27;;;;;;;;;;4981509;28;82156;-52
2024/02/25 02:15:48;;;;;;;0.57;0.30;;;;;;;;;;4983526;28;81813;-51
2024/02/25 02:18:13;;;;;;;1.70;0.70;;;;;;;;;;4991816;28;82056;-53
2024/02/25 02:20:43;;;;;;;0.40;0.40;;;;;;;;;;4981736;28;81969;-53
2024/02/25 02:23:08;;;;;;;0.60;0.30;;;;;;;;;;4986694;28;82908;-53
2024/02/25 02:25:33;;;;;;;0.60;0.40;;;;;;;;;;4983186;28;82212;-52
2024/02/25 02:27:58;;;;;;;0.90;0.23;;;;;;;;;;4984388;28;81365;-53
2024/02/25 02:30:24;;;;;;;0.40;0.30;;;;;;;;;;4985473;28;82415;-53
2024/02/25 02:32:49;;;;;;;1.73;0.30;;;;;;;;;;4980851;28;82377;-53
2024/02/25 02:35:14;;;;;;;0.20;0.20;;;;;;;;;;4986520;28;83516;-52
2024/02/25 02:37:39;;;;;;;1.00;0.30;;;;;;;;;;4980546;28;82461;-52
2024/02/25 02:40:05;;;;;;;0.33;0.20;;;;;;;;;;4981710;28;82573;-52
2024/02/25 02:42:31;;;;;;;1.13;0.30;;;;;;;;;;4980756;28;82109;-53
2024/02/25 02:44:58;;;;;;;0.88;0.22;;;;;;;;;;4992150;28;81934;-53
2024/02/25 02:47:23;;;;;;;0.63;0.22;;;;;;;;;;4987592;28;83116;-52
2024/02/25 02:49:48;;;;;;;0.83;0.27;;;;;;;;;;4985120;28;81873;-52
2024/02/25 02:52:14;;;;;;;0.40;0.20;;;;;;;;;;4989281;28;81160;-53
2024/02/25 02:54:40;;;;;;;1.23;0.40;;;;;;;;;;4983552;28;82597;-51
2024/02/25 02:57:05;;;;;;;0.30;0.20;;;;;;;;;;4987953;28;82084;-53
2024/02/25 02:59:32;;;;;;;0.40;0.30;;;;;;;;;;4983182;28;83096;-50
2024/02/25 03:01:58;;;;;;;0.55;0.30;;;;;;;;;;4980989;28;83398;-51
2024/02/25 03:04:23;;;;;;;0.27;0.20;;;;;;;;;;4987478;28;82052;-52
2024/02/25 03:06:48;;;;;;;0.20;0.20;;;;;;;;;;4990163;28;82042;-51
2024/02/25 03:09:13;;;;;;;1.00;0.27;;;;;;;;;;4985386;28;82050;-53
2024/02/25 03:11:39;;;;;;;0.70;0.30;;;;;;;;;;4990670;28;81911;-53
2024/02/25 03:14:04;;;;;;;0.70;0.23;;;;;;;;;;4986125;28;82295;-54
2024/02/25 03:16:29;;;;;;;0.20;0.17;;;;;;;;;;5002780;28;81200;-52
2024/02/25 03:18:55;;;;;;;1.10;0.30;;;;;;;;;;4988704;28;82207;-52
2024/02/25 03:21:20;;;;;;;0.60;0.30;;;;;;;;;;4983687;28;83051;-53
2024/02/25 03:23:45;;;;;;;0.57;0.37;;;;;;;;;;4986705;28;83473;-52
2024/02/25 03:26:17;;;;;;;0.43;0.33;;;;;;;;;;4985821;28;82355;-51
2024/02/25 03:28:42;;;;;;;0.57;0.30;;;;;;;;;;4984514;28;82889;-50
2024/02/25 03:31:08;;;;;;;0.30;0.20;;;;;;;;;;4985410;28;82157;-51
2024/02/25 03:33:33;;;;;;;0.47;0.20;;;;;;;;;;4996267;28;83712;-53
2024/02/25 03:35:59;;;;;;;0.50;0.20;;;;;;;;;;4982400;28;82303;-54
2024/02/25 03:38:24;;;;;;;1.37;0.70;;;;;;;;;;4982794;28;82611;-51
2024/02/25 03:40:49;;;;;;;1.03;0.30;;;;;;;;;;4984924;28;81754;-53
2024/02/25 03:43:16;;;;;;;0.23;0.20;;;;;;;;;;4986383;28;83044;-52
2024/02/25 03:45:41;;;;;;;0.60;0.30;;;;;;;;;;4983036;28;82308;-52
2024/02/25 03:48:07;;;;;;;0.80;0.30;;;;;;;;;;4983504;28;82781;-53
2024/02/25 03:50:32;;;;;;;0.20;0.20;;;;;;;;;;4989301;28;81978;-53
2024/02/25 03:52:57;;;;;;;1.20;0.20;;;;;;;;;;5005782;28;81955;-53
2024/02/25 03:55:24;;;;;;;0.52;0.30;;;;;;;;;;4985978;28;82478;-51
2024/02/25 03:57:50;;;;;;;0.88;0.20;;;;;;;;;;4988379;28;82448;-52
2024/02/25 04:00:15;;;;;;;1.80;0.37;;;;;;;;;;4989272;28;82846;-53
2024/02/25 04:02:41;;;;;;;0.10;0.10;;;;;;;;;;4989622;28;82876;-53
2024/02/25 04:05:07;;;;;;;1.20;0.20;;;;;;;;;;4994185;28;81435;-51
2024/02/25 04:07:32;;;;;;;0.20;0.20;;;;;;;;;;4986200;28;82602;-54
2024/02/25 04:09:57;;;;;;;1.10;0.38;;;;;;;;;;4989330;28;82591;-54
2024/02/25 04:12:23;;;;;;;0.20;0.20;;;;;;;;;;4988604;28;84238;-53
2024/02/25 04:14:48;;;;;;;0.50;0.20;;;;;;;;;;4994443;28;82195;-51
2024/02/25 04:17:13;;;;;;;1.50;0.10;;;;;;;;;;4988426;28;83331;-53
2024/02/25 04:19:39;;;;;;;0.30;0.30;;;;;;;;;;4984155;28;82428;-53
2024/02/25 04:22:04;;;;;;;0.30;0.20;;;;;;;;;;4983149;28;81877;-54
2024/02/25 04:24:29;;;;;;;0.10;0.10;;;;;;;;;;5007685;28;82549;-53
2024/02/25 04:26:54;;;;;;;0.40;0.30;;;;;;;;;;4987109;28;82176;-52
2024/02/25 04:29:20;;;;;;;0.60;0.40;;;;;;;;;;4990107;28;81975;-53
2024/02/25 04:31:46;;;;;;;0.20;0.20;;;;;;;;;;4987210;28;81952;-52
2024/02/25 04:34:15;;;;;;;1.20;0.40;;;;;;;;;;4987269;28;82618;-49
2024/02/25 04:36:40;;;;;;;0.47;0.32;;;;;;;;;;4982013;28;82885;-53
2024/02/25 04:39:05;;;;;;;0.20;0.20;;;;;;;;;;4989284;28;83165;-53
2024/02/25 04:41:31;;;;;;;0.47;0.30;;;;;;;;;;4987947;28;82257;-52
2024/02/25 04:43:56;;;;;;;0.40;0.20;;;;;;;;;;4983369;28;82044;-53
2024/02/25 04:46:21;;;;;;;0.57;0.27;;;;;;;;;;4991257;28;81899;-53
2024/02/25 04:48:48;;;;;;;0.10;0.10;;;;;;;;;;4990119;28;81820;-52
2024/02/25 04:51:14;;;;;;;0.20;0.20;;;;;;;;;;4985672;28;82511;-52
2024/02/25 04:53:39;;;;;;;0.20;0.20;;;;;;;;;;4986094;28;81644;-53
2024/02/25 04:56:04;;;;;;;0.20;0.20;;;;;;;;;;4986281;28;82108;-51
2024/02/25 04:58:30;;;;;;;0.60;0.20;;;;;;;;;;4985967;28;82393;-52
2024/02/25 05:00:55;;;;;;;0.30;0.20;;;;;;;;;;4986002;28;83640;-52
2024/02/25 05:03:20;;;;;;;0.20;0.20;;;;;;;;;;4985719;28;83264;-52
2024/02/25 05:05:45;;;;;;;0.33;0.30;;;;;;;;;;4986878;28;85048;-54
2024/02/25 05:08:11;;;;;;;0.57;0.30;;;;;;;;;;4986691;28;82075;-52
2024/02/25 05:10:37;;;;;;;0.50;0.33;;;;;;;;;;4985181;28;82552;-53
2024/02/25 05:13:03;;;;;;;0.20;0.20;;;;;;;;;;4984262;28;82423;-52
2024/02/25 05:15:28;;;;;;;0.20;0.10;;;;;;;;;;4986946;28;81952;-50
2024/02/25 05:17:54;;;;;;;0.45;0.30;;;;;;;;;;4982613;28;81814;-52
2024/02/25 05:20:20;;;;;;;0.20;0.20;;;;;;;;;;4987473;28;81942;-53
2024/02/25 05:22:45;;;;;;;2.22;0.30;;;;;;;;;;4989225;28;81924;-53
2024/02/25 05:25:10;;;;;;;0.20;0.20;;;;;;;;;;4981872;28;83760;-53
2024/02/25 05:27:37;;;;;;;0.10;0.10;;;;;;;;;;4993306;28;82446;-53
2024/02/25 05:30:05;;;;;;;0.45;0.40;;;;;;;;;;4985499;28;81833;-50
2024/02/25 05:32:30;;;;;;;1.30;0.40;;;;;;;;;;4992008;28;83364;-53
2024/02/25 05:34:55;;;;;;;0.20;0.20;;;;;;;;;;4981383;28;81989;-53
2024/02/25 05:37:22;;;;;;;0.30;0.20;;;;;;;;;;4991052;28;81968;-52
2024/02/25 05:39:48;;;;;;;1.27;0.20;;;;;;;;;;4981758;28;82321;-50
2024/02/25 05:42:13;;;;;;;0.30;0.20;;;;;;;;;;4985850;28;81255;-52
2024/02/25 05:44:38;;;;;;;0.30;0.20;;;;;;;;;;4988039;28;83457;-53
2024/02/25 05:47:04;;;;;;;0.50;0.30;;;;;;;;;;4986539;28;81946;-51
2024/02/25 05:49:29;;;;;;;0.30;0.20;;;;;;;;;;4989729;28;82893;-53
2024/02/25 05:51:54;;;;;;;0.30;0.20;;;;;;;;;;4983153;28;82902;-50
2024/02/25 05:54:19;;;;;;;0.47;0.17;;;;;;;;;;4992001;28;81936;-53
2024/02/25 05:56:45;;;;;;;0.20;0.17;;;;;;;;;;4986670;28;82604;-53
2024/02/25 05:59:10;;;;;;;0.20;0.13;;;;;;;;;;4986032;28;82766;-52
2024/02/25 06:01:36;;;;;;;0.20;0.10;;;;;;;;;;4983260;28;81938;-53
2024/02/25 06:04:04;;;;;;;0.47;0.17;;;;;;;;;;4992170;28;82502;-53
2024/02/25 06:06:29;;;;;;;1.10;0.13;;;;;;;;;;4990537;28;81200;-53
2024/02/25 06:08:54;;;;;;;1.40;0.30;;;;;;;;;;4987046;28;82405;-53
2024/02/25 06:11:20;;;;;;;0.80;0.30;;;;;;;;;;4985138;28;81946;-52
2024/02/25 06:13:45;;;;;;;0.20;0.20;;;;;;;;;;4989559;28;83128;-52
2024/02/25 06:16:10;;;;;;;0.37;0.30;;;;;;;;;;4983371;28;82234;-53
2024/02/25 06:18:37;;;;;;;0.27;0.23;;;;;;;;;;4982488;28;83130;-49
2024/02/25 06:21:02;;;;;;;0.20;0.10;;;;;;;;;;4986668;28;83010;-52
2024/02/25 06:23:28;;;;;;;0.23;0.23;;;;;;;;;;4986425;28;82234;-51
2024/02/25 06:25:56;;;;;;;0.40;0.20;;;;;;;;;;4984388;28;82240;-53
2024/02/25 06:28:21;;;;;;;0.73;0.30;;;;;;;;;;4984764;28;82584;-52
2024/02/25 06:30:47;;;;;;;0.10;0.10;;;;;;;;;;4987533;28;82387;-50
2024/02/25 06:33:12;;;;;;;0.33;0.33;;;;;;;;;;4980512;28;82695;-53
2024/02/25 06:35:37;;;;;;;0.13;0.13;;;;;;;;;;4988266;28;82297;-49
2024/02/25 06:38:02;;;;;;;0.10;0.10;;;;;;;;;;4986917;28;84340;-53
2024/02/25 06:40:27;;;;;;;0.13;0.13;;;;;;;;;;4989082;28;82402;-52
2024/02/25 06:42:53;;;;;;;0.07;0.07;;;;;;;;;;4987402;28;81870;-54
2024/02/25 06:45:18;;;;;;;0.38;0.20;;;;;;;;;;4995676;28;82201;-50
2024/02/25 06:47:45;;;;;;;0.10;0.10;;;;;;;;;;4985680;28;82545;-50
2024/02/25 06:50:10;;;;;;;0.80;0.38;;;;;;;;;;4988512;28;82377;-50
2024/02/25 06:52:36;;;;;;;0.17;0.10;;;;;;;;;;4985131;28;81968;-53
2024/02/25 06:55:02;;;;;;;0.68;0.30;;;;;;;;;;4988478;28;82308;-52
2024/02/25 06:57:27;;;;;;;0.27;0.27;;;;;;;;;;4995117;28;82742;-51
2024/02/25 06:59:52;;;;;;;0.10;0.10;;;;;;;;;;4990206;28;81989;-52
2024/02/25 07:02:17;;;;;;;0.30;0.20;;;;;;;;;;4992911;28;82962;-52
2024/02/25 07:04:42;;;;;;;0.20;0.20;;;;;;;;;;4982952;28;82624;-50
2024/02/25 07:07:08;;;;;;;1.00;0.20;;;;;;;;;;4993940;28;82212;-53
2024/02/25 07:09:33;;;;;;;0.23;0.13;;;;;;;;;;4991418;28;82786;-54
2024/02/25 07:11:58;;;;;;;2.07;0.30;;;;;;;;;;4990186;28;82017;-52
2024/02/25 07:14:24;;;;;;;1.17;0.30;;;;;;;;;;4993594;28;83176;-53
2024/02/25 07:16:49;;;;;;;1.58;0.30;;;;;;;;;;4989706;28;82500;-50
2024/02/25 07:19:15;;;;;;;0.40;0.17;;;;;;;;;;4986069;28;81383;-50
2024/02/25 07:21:40;;;;;;;0.70;0.37;;;;;;;;;;4982888;28;81990;-53
2024/02/25 07:24:05;;;;;;;0.50;0.30;;;;;;;;;;4991945;28;81910;-52
2024/02/25 07:26:30;;;;;;;0.10;0.10;;;;;;;;;;4990629;28;82882;-50
2024/02/25 07:28:56;;;;;;;0.50;0.30;;;;;;;;;;4993907;28;83316;-51
2024/02/25 07:31:21;;;;;;;0.30;0.30;;;;;;;;;;4986833;28;82528;-52
2024/02/25 07:33:47;;;;;;;0.70;0.30;;;;;;;;;;4984136;28;82639;-52
2024/02/25 07:36:13;;;;;;;1.57;0.40;;;;;;;;;;4984886;28;82663;-49
2024/02/25 07:38:38;;;;;;;0.35;0.30;;;;;;;;;;4983960;28;82007;-52
2024/02/25 07:41:04;;;;;;;1.25;0.65;;;;;;;;;;4983678;28;82464;-51
2024/02/25 07:43:29;;;;;;;3.50;0.60;;;;;;;;;;4995889;28;81975;-52
2024/02/25 07:45:54;;;;;;;3.17;1.00;;;;;;;;;;4992481;28;82007;-52
2024/02/25 07:48:20;;;;;;;2.50;0.90;;;;;;;;;;4988654;28;82522;-53
2024/02/25 07:50:45;;;;;;;0.43;0.40;;;;;;;;;;4990486;28;83728;-51
2024/02/25 07:53:11;;;;;;;2.60;0.60;;;;;;;;;;4991524;28;84149;-52
2024/02/25 07:55:36;;;;;;;1.23;0.70;;;;;;;;;;4981177;28;84129;-52
2024/02/25 07:58:02;;;;;;;2.53;0.60;;;;;;;;;;4990112;28;81884;-49
2024/02/25 08:00:27;;;;;;;1.38;0.47;;;;;;;;;;4984176;28;82452;-50
2024/02/25 08:02:52;;;;;;;2.90;0.50;;;;;;;;;;4989385;28;82402;-51
2024/02/25 08:05:19;;;;;;;2.65;0.70;;;;;;;;;;4989441;28;82006;-50
2024/02/25 08:07:45;;;;;;;1.83;0.40;;;;;;;;;;4985128;28;82562;-49
2024/02/25 08:10:12;;;;;;;2.67;0.70;;;;;;;;;;4985920;28;82600;-51
2024/02/25 08:12:39;;;;;;;0.77;0.40;;;;;;;;;;4982925;28;82523;-50
2024/02/25 08:15:04;;;;;;;2.53;0.45;;;;;;;;;;4989826;28;82957;-48
2024/02/25 08:17:29;;;;;;;4.00;0.67;;;;;;;;;;4985846;28;82236;-49
2024/02/25 08:19:59;;;;;;;3.17;0.47;;;;;;;;;;4983947;28;82500;-48
2024/02/25 08:22:26;;;;;;;1.55;0.60;;;;;;;;;;4986293;28;82612;-51
2024/02/25 08:24:51;;;;;;;1.30;0.40;;;;;;;;;;4987997;28;82109;-52
2024/02/25 08:27:16;;;;;;;1.67;0.60;;;;;;;;;;4989037;28;82212;-50
2024/02/25 08:29:44;;;;;;;4.80;0.50;;;;;;;;;;4990611;28;82552;-50
2024/02/25 08:32:09;;;;;;;1.90;0.30;;;;;;;;;;4984752;28;81346;-53
2024/02/25 08:34:35;;;;;;;13.20;0.50;;;;;;;;;;4990827;28;82971;-48
2024/02/25 08:37:01;;;;;;;4.43;0.77;;;;;;;;;;4985548;28;82300;-51
2024/02/25 08:39:27;;;;;;;4.28;0.40;;;;;;;;;;4983668;28;82955;-49
2024/02/25 08:41:52;;;;;;;6.20;0.52;;;;;;;;;;4990764;28;81952;-49
2024/02/25 08:44:17;;;;;;;3.97;0.77;;;;;;;;;;4987422;28;82317;-52
2024/02/25 08:46:42;;;;;;;2.10;0.60;;;;;;;;;;4986590;28;83915;-52
2024/02/25 08:49:10;;;;;;;1.80;0.40;;;;;;;;;;4986697;28;82118;-52
2024/02/25 08:51:35;;;;;;;3.00;0.50;;;;;;;;;;4984514;28;82135;-54
2024/02/25 08:54:02;;;;;;;3.90;0.70;;;;;;;;;;4986093;28;82172;-51
2024/02/25 08:56:30;;;;;;;5.00;0.70;;;;;;;;;;4989102;28;81798;-48
2024/02/25 08:58:56;;;;;;;3.00;0.60;;;;;;;;;;4980867;28;81961;-48
2024/02/25 09:01:22;;;;;;;2.00;0.30;;;;;;;;;;4981147;28;82285;-49
2024/02/25 09:03:47;;;;;;;0.80;0.20;;;;;;;;;;4983321;28;83740;-52
2024/02/25 09:06:15;;;;;;;2.77;0.47;;;;;;;;;;4985844;28;82537;-49
2024/02/25 09:08:40;;;;;;;4.20;0.63;;;;;;;;;;4984245;28;83915;-48
2024/02/25 09:11:05;;;;;;;0.63;0.50;;;;;;;;;;4990756;28;81827;-48
2024/02/25 09:13:31;;;;;;;2.97;0.40;;;;;;;;;;4985638;28;82378;-50
2024/02/25 09:15:56;;;;;;;2.10;0.43;;;;;;;;;;4989092;28;82743;-48
2024/02/25 09:18:21;;;;;;;0.77;0.30;;;;;;;;;;4989179;28;82606;-50
2024/02/25 09:20:47;;;;;;;3.50;0.50;;;;;;;;;;4988046;28;81575;-49
2024/02/25 09:23:12;;;;;;;0.27;0.27;;;;;;;;;;4982779;28;82496;-52
2024/02/25 09:25:37;;;;;;;4.00;0.50;;;;;;;;;;4984181;28;82372;-49
2024/02/25 09:28:03;;;;;;;0.67;0.33;;;;;;;;;;4990487;28;83085;-49
2024/02/25 09:30:28;;;;;;;1.20;0.30;;;;;;;;;;4986700;28;82083;-47
2024/02/25 09:32:54;;;;;;;3.30;0.57;;;;;;;;;;4995511;28;82323;-47
2024/02/25 09:35:19;;;;;;;1.53;0.53;;;;;;;;;;4988466;28;82592;-48
2024/02/25 09:37:44;;;;;;;1.17;0.30;;;;;;;;;;4991474;28;82440;-51
2024/02/25 09:40:10;;;;;;;0.93;0.43;;;;;;;;;;4985050;28;85512;-47
2024/02/25 09:42:35;;;;;;;2.40;0.40;;;;;;;;;;4986033;28;82659;-48
2024/02/25 09:45:00;;;;;;;5.40;0.50;;;;;;;;;;4987306;28;83175;-49
2024/02/25 09:47:26;;;;;;;2.37;0.77;;;;;;;;;;4983681;28;83829;-47
2024/02/25 09:49:51;;;;;;;2.30;0.50;;;;;;;;;;4988328;28;82307;-47
2024/02/25 09:52:19;;;;;;;6.13;0.53;;;;;;;;;;4988762;28;84115;-47
2024/02/25 09:54:47;;;;;;;3.47;0.47;;;;;;;;;;4986735;28;82748;-49
2024/02/25 09:57:13;;;;;;;1.63;0.40;;;;;;;;;;4992274;28;81983;-47
2024/02/25 09:59:39;;;;;;;2.28;0.70;;;;;;;;;;4988553;28;82148;-48
2024/02/25 10:02:06;;;;;;;1.67;0.50;;;;;;;;;;4987021;28;82061;-48
2024/02/25 10:04:32;;;;;;;6.60;0.65;;;;;;;;;;4986417;28;82144;-48
2024/02/25 10:06:58;;;;;;;3.55;0.65;;;;;;;;;;4987937;28;87101;-50
2024/02/25 10:09:30;;;;;;;4.65;0.35;;;;;;;;;;4986686;28;86837;-48
2024/02/25 10:11:55;;;;;;;7.13;0.50;;;;;;;;;;4984989;28;87257;-47
2024/02/25 10:14:21;;;;;;;2.67;0.63;;;;;;;;;;4988459;28;87632;-49
2024/02/25 10:17:00;;;;;;;2.70;1.00;;;;;;;;;;4985346;28;88348;-48
2024/02/25 10:19:25;;;;;;;2.50;0.60;;;;;;;;;;4983701;28;88137;-47
2024/02/25 10:21:50;;;;;;;1.40;0.40;;;;;;;;;;4994342;28;87963;-55
2024/02/25 10:24:27;;;;;;;5.90;0.50;;;;;;;;;;4989092;28;87939;-48
2024/02/25 10:27:05;;;;;;;2.50;0.50;;;;;;;;;;4989467;28;87604;-47
2024/02/25 10:29:30;;;;;;;0.50;0.40;;;;;;;;;;4987144;28;87121;-47
2024/02/25 10:31:59;;;;;;;2.47;0.37;;;;;;;;;;4985395;28;89346;-48
2024/02/25 10:34:25;;;;;;;4.85;0.52;;;;;;;;;;4989053;28;86140;-48
2024/02/25 10:36:50;;;;;;;0.40;0.30;;;;;;;;;;4988838;28;87704;-47
2024/02/25 10:39:16;;;;;;;2.78;0.80;;;;;;;;;;4989025;28;87114;-47
2024/02/25 10:41:43;;;;;;;1.80;0.60;;;;;;;;;;4983105;28;88530;-48
2024/02/25 10:44:10;;;;;;;1.20;0.45;;;;;;;;;;4994128;28;87133;-47
2024/02/25 10:46:42;;;;;;;3.00;0.57;;;;;;;;;;4983986;28;87044;-48
2024/02/25 10:49:09;;;;;;;2.38;0.88;;;;;;;;;;4989306;28;87080;-47
2024/02/25 10:51:34;;;;;;;4.45;0.55;;;;;;;;;;4982499;28;87262;-48
2024/02/25 10:54:00;;;;;;;4.80;0.60;;;;;;;;;;4992172;28;86935;-48
2024/02/25 10:56:27;;;;;;;1.20;0.63;;;;;;;;;;4987292;28;87142;-48
2024/02/25 10:58:52;;;;;;;0.82;0.52;;;;;;;;;;4985797;28;86386;-48
2024/02/25 11:01:19;;;;;;;1.20;0.77;;;;;;;;;;4985257;28;87015;-47
2024/02/25 11:03:44;;;;;;;1.13;0.57;;;;;;;;;;4989837;28;87260;-48
2024/02/25 11:06:10;;;;;;;1.55;0.52;;;;;;;;;;4989542;28;88091;-49
2024/02/25 11:08:36;;;;;;;0.87;0.80;;;;;;;;;;4986063;28;87466;-48
2024/02/25 11:11:07;;;;;;;2.50;0.47;;;;;;;;;;4980712;28;87079;-48
2024/02/25 11:13:33;;;;;;;3.63;0.60;;;;;;;;;;4986760;28;86955;-47
2024/02/25 11:16:00;;;;;;;3.83;1.10;;;;;;;;;;4986347;28;87749;-49
2024/02/25 11:18:28;;;;;;;3.13;0.70;;;;;;;;;;4990553;28;88081;-48
2024/02/25 11:21:04;;;;;;;1.50;0.40;;;;;;;;;;4980309;28;89463;-47
2024/02/25 11:23:46;;;;;;;3.78;0.70;;;;;;;;;;4968734;28;86361;-48
2024/02/25 11:26:30;;;;;;;2.08;0.70;;;;;;;;;;4997282;28;87653;-48
2024/02/25 11:29:17;;;;;;;3.55;0.63;;;;;;;;;;4986960;28;87027;-47
2024/02/25 11:31:52;;;;;;;1.85;0.50;;;;;;;;;;4981363;28;88745;-48
2024/02/25 11:34:19;;;;;;;1.98;0.45;;;;;;;;;;4979527;28;87528;-48
2024/02/25 11:36:47;;;;;;;0.40;0.30;;;;;;;;;;4982755;28;86935;-47
2024/02/25 11:39:12;;;;;;;2.88;0.73;;;;;;;;;;4981983;28;88761;-48
2024/02/25 11:41:38;;;;;;;0.50;0.30;;;;;;;;;;4981804;28;87659;-49
2024/02/25 11:44:03;;;;;;;2.53;0.60;;;;;;;;;;4984437;28;87003;-49
2024/02/25 11:46:29;;;;;;;2.50;0.50;;;;;;;;;;4985293;28;87375;-48
2024/02/25 11:48:54;;;;;;;3.37;0.53;;;;;;;;;;4983922;28;87346;-47
2024/02/25 11:51:19;;;;;;;0.73;0.60;;;;;;;;;;4984006;28;87786;-47
2024/02/25 11:53:48;;;;;;;1.77;0.50;;;;;;;;;;4984674;28;87930;-47
2024/02/25 11:56:14;;;;;;;2.70;0.43;;;;;;;;;;4984549;28;88033;-49
2024/02/25 11:58:39;;;;;;;1.20;0.60;;;;;;;;;;4986782;28;87828;-48
2024/02/25 12:01:05;;;;;;;3.88;0.68;;;;;;;;;;4989094;28;86874;-47
2024/02/25 12:03:30;;;;;;;0.73;0.45;;;;;;;;;;4983041;28;86906;-48
2024/02/25 12:05:56;;;;;;;0.60;0.40;;;;;;;;;;4981435;28;87563;-48
2024/02/25 12:08:22;;;;;;;1.85;0.60;;;;;;;;;;4990266;28;86785;-47
2024/02/25 12:10:48;;;;;;;0.77;0.50;;;;;;;;;;4986097;28;87730;-48
2024/02/25 12:13:13;;;;;;;0.77;0.35;;;;;;;;;;4990970;28;86951;-48
2024/02/25 12:15:42;;;;;;;6.00;0.77;;;;;;;;;;4983742;28;86902;-47
2024/02/25 12:18:08;;;;;;;4.90;1.15;;;;;;;;;;4983123;28;87542;-48
2024/02/25 12:20:34;;;;;;;3.05;0.63;;;;;;;;;;4983096;28;89031;-48
2024/02/25 12:23:00;;;;;;;2.53;0.77;;;;;;;;;;4991554;28;87372;-48
2024/02/25 12:25:26;;;;;;;3.88;0.98;;;;;;;;;;4985422;28;87070;-48
2024/02/25 12:28:05;;;;;;;4.10;0.50;;;;;;;;;;4980675;28;88323;-48
2024/02/25 12:30:31;;;;;;;1.40;0.63;;;;;;;;;;4983170;28;87910;-47
2024/02/25 12:32:57;;;;;;;2.70;0.80;;;;;;;;;;4988067;28;87375;-48
2024/02/25 12:35:22;;;;;;;1.05;0.70;;;;;;;;;;4979337;28;87014;-48
2024/02/25 12:37:47;;;;;;;2.50;0.90;;;;;;;;;;4989153;28;86387;-47
2024/02/25 12:40:14;;;;;;;2.30;0.97;;;;;;;;;;4984775;28;88650;-47
2024/02/25 12:42:44;;;;;;;4.22;1.05;;;;;;;;;;4982576;28;87118;-48
2024/02/25 12:45:09;;;;;;;2.15;0.80;;;;;;;;;;4990430;28;88796;-47
2024/02/25 12:47:35;;;;;;;2.57;1.00;;;;;;;;;;4983545;28;87899;-49
2024/02/25 12:50:00;;;;;;;2.30;1.10;;;;;;;;;;4988300;28;87119;-48
2024/02/25 12:52:25;;;;;;;1.97;0.87;;;;;;;;;;4987934;28;88759;-48
2024/02/25 12:54:52;;;;;;;4.33;1.23;;;;;;;;;;4985459;28;88436;-48
2024/02/25 12:57:18;;;;;;;4.80;1.20;;;;;;;;;;4987614;28;87434;-47
2024/02/25 12:59:43;;;;;;;2.47;1.17;;;;;;;;;;4983938;28;87275;-49
2024/02/25 13:02:10;;;;;;;3.50;1.00;;;;;;;;;;4982689;28;86665;-47
2024/02/25 13:04:36;;;;;;;1.80;1.10;;;;;;;;;;4978994;28;87399;-47
2024/02/25 13:07:02;;;;;;;4.35;1.45;;;;;;;;;;4982548;28;87475;-48
2024/02/25 13:09:28;;;;;;;2.55;1.20;;;;;;;;;;4980124;28;88012;-47
2024/02/25 13:11:53;;;;;;;2.63;0.80;;;;;;;;;;4979839;28;87164;-46
2024/02/25 13:14:18;;;;;;;2.30;0.90;;;;;;;;;;4986392;28;87616;-47
2024/02/25 13:16:44;;;;;;;3.30;1.13;;;;;;;;;;4983043;28;86916;-48
2024/02/25 13:19:09;;;;;;;2.70;1.10;;;;;;;;;;4984480;28;87558;-48
2024/02/25 13:21:35;;;;;;;3.50;1.00;;;;;;;;;;4982795;28;87203;-48
2024/02/25 13:24:00;;;;;;;2.37;1.20;;;;;;;;;;4983253;28;87523;-47
2024/02/25 13:26:25;;;;;;;4.43;1.00;;;;;;;;;;4981011;28;87033;-47
2024/02/25 13:28:51;;;;;;;5.10;1.07;;;;;;;;;;4982209;28;86951;-48
2024/02/25 13:31:16;;;;;;;2.50;0.97;;;;;;;;;;4981932;28;87447;-47
2024/02/25 13:33:42;;;;;;;2.30;1.30;;;;;;;;;;4986690;28;88477;-48
2024/02/25 13:36:07;;;;;;;3.53;1.20;;;;;;;;;;4988020;28;87397;-49
2024/02/25 13:38:32;;;;;;;3.10;1.50;;;;;;;;;;4978576;28;87651;-47
2024/02/25 13:40:59;;;;;;;4.73;1.20;;;;;;;;;;4980803;28;87285;-47
2024/02/25 13:43:24;;;;;;;4.07;1.23;;;;;;;;;;4982962;28;87192;-47
2024/02/25 13:45:50;;;;;;;5.00;1.30;;;;;;;;;;4983897;28;87642;-49
2024/02/25 13:48:16;;;;;;;1.67;0.97;;;;;;;;;;4984164;28;87340;-48
2024/02/25 13:50:41;;;;;;;4.35;1.00;;;;;;;;;;4989490;28;87439;-47
2024/02/25 13:53:07;;;;;;;3.17;1.10;;;;;;;;;;4963232;28;89636;-47
2024/02/25 13:55:32;;;;;;;1.87;1.10;;;;;;;;;;4993177;28;87190;-49
2024/02/25 13:58:00;;;;;;;4.33;1.10;;;;;;;;;;4984458;28;89291;-49
2024/02/25 14:00:26;;;;;;;2.97;0.85;;;;;;;;;;4987517;28;87227;-48
2024/02/25 14:02:54;;;;;;;3.08;1.10;;;;;;;;;;4997092;28;88417;-47
2024/02/25 14:05:20;;;;;;;3.10;1.00;;;;;;;;;;4982791;28;86907;-47
2024/02/25 14:07:46;;;;;;;2.87;1.10;;;;;;;;;;4978769;28;87185;-48
2024/02/25 14:10:14;;;;;;;5.20;1.37;;;;;;;;;;4980399;28;87421;-48
2024/02/25 14:12:40;;;;;;;2.42;1.00;;;;;;;;;;4976810;28;86970;-48
2024/02/25 14:15:06;;;;;;;3.72;1.20;;;;;;;;;;4985068;28;86747;-47
2024/02/25 14:17:32;;;;;;;4.30;1.20;;;;;;;;;;4983650;28;86841;-48
2024/02/25 14:19:57;;;;;;;3.60;1.15;;;;;;;;;;4986827;28;87125;-48
2024/02/25 14:22:22;;;;;;;2.50;1.10;;;;;;;;;;4984888;28;90059;-47
2024/02/25 14:24:48;;;;;;;3.73;1.23;;;;;;;;;;4985298;28;87298;-48
2024/02/25 14:27:13;;;;;;;2.57;1.20;;;;;;;;;;4981057;28;87243;-47
2024/02/25 14:29:38;;;;;;;5.57;1.00;;;;;;;;;;4992071;28;87369;-48
2024/02/25 14:32:03;;;;;;;1.57;1.00;;;;;;;;;;4983606;28;87529;-48
2024/02/25 14:34:29;;;;;;;2.45;1.20;;;;;;;;;;4981541;28;86920;-48
2024/02/25 14:36:54;;;;;;;2.97;1.08;;;;;;;;;;4979228;28;87439;-47